Time;durP1;ratioP1;P1;durP2;ratioP2;P2;SDS_P1;SDS_P2;PMS_P1;PMS_P2;Temp;Humidity;BMP_temperature;BMP_pressure;BME280_temperature;BME280_humidity;BME280_pressure;Samples;Min_cycle;Max_cycle;Signal;HPM_P1;HPM_P2
2023/02/25 00:02:12;;;;;;;;;;;23.00;79.10;;;;;;1805306;78;21329;-78
2023/02/25 00:04:43;;;;;;;;;;;23.00;78.70;;;;;;1838107;78;20203;-75
2023/02/25 00:07:13;;;;;;;;;;;23.00;79.30;;;;;;1830670;78;20323;-76
2023/02/25 00:09:42;;;;;;;;;;;23.00;80.10;;;;;;1806007;78;20199;-74
2023/02/25 00:12:12;;;;;;;;;;;23.00;79.70;;;;;;1834212;77;20178;-74
2023/02/25 00:14:42;;;;;;;;;;;23.00;79.80;;;;;;1839339;77;20177;-73
2023/02/25 00:17:13;;;;;;;;;;;23.00;80.00;;;;;;1838245;78;20220;-74
2023/02/25 00:19:44;;;;;;;;;;;23.00;80.20;;;;;;1842221;77;20183;-74
2023/02/25 00:22:14;;;;;;;;;;;23.00;80.00;;;;;;1839687;77;20177;-74
2023/02/25 00:24:44;;;;;;;;;;;23.00;80.20;;;;;;1839177;76;20499;-76
2023/02/25 00:27:14;;;;;;;;;;;23.00;80.00;;;;;;1840951;77;20582;-74
2023/02/25 00:29:44;;;;;;;;;;;23.00;80.50;;;;;;1838698;77;20169;-75
2023/02/25 00:32:14;;;;;;;;;;;23.00;80.50;;;;;;1864587;77;20214;-73
2023/02/25 00:34:45;;;;;;;;;;;23.00;80.20;;;;;;1839472;76;20464;-73
2023/02/25 00:37:33;;;;;;;;;;;23.00;80.20;;;;;;1796960;79;20236;-75
2023/02/25 00:40:09;;;;;;;;;;;23.00;80.60;;;;;;1837619;77;20262;-74
2023/02/25 00:42:36;;;;;;;;;;;23.00;80.50;;;;;;1830763;78;20384;-73
2023/02/25 00:45:06;;;;;;;;;;;23.00;80.60;;;;;;1835810;76;20293;-75
2023/02/25 00:47:39;;;;;;;;;;;23.00;80.50;;;;;;1824003;78;20219;-74
2023/02/25 00:50:13;;;;;;;;;;;23.00;80.60;;;;;;1830053;75;20215;-73
2023/02/25 00:52:45;;;;;;;;;;;23.00;80.50;;;;;;1819731;77;20202;-75
2023/02/25 00:55:17;;;;;;;;;;;23.00;80.00;;;;;;1811188;78;20282;-74
2023/02/25 00:57:46;;;;;;;;;;;23.00;80.00;;;;;;1831446;77;20235;-75
2023/02/25 01:00:16;;;;;;;;;;;23.00;80.00;;;;;;1837240;75;20186;-83
2023/02/25 01:02:46;;;;;;;;;;;23.00;79.80;;;;;;1832126;77;20183;-83
2023/02/25 01:05:18;;;;;;;;;;;23.00;80.10;;;;;;1825232;78;20192;-84
2023/02/25 01:07:48;;;;;;;;;;;23.10;79.90;;;;;;1822468;79;20400;-83
2023/02/25 01:10:18;;;;;;;;;;;23.10;79.50;;;;;;1822737;78;20244;-83
2023/02/25 01:12:48;;;;;;;;;;;23.10;79.60;;;;;;1825500;77;20247;-83
2023/02/25 01:15:17;;;;;;;;;;;23.20;79.50;;;;;;1823986;79;20190;-83
2023/02/25 01:17:47;;;;;;;;;;;23.20;79.20;;;;;;1792958;79;20239;-84
2023/02/25 01:20:21;;;;;;;;;;;23.20;79.30;;;;;;1792647;80;20192;-83
2023/02/25 01:22:51;;;;;;;;;;;23.30;79.30;;;;;;1792545;80;20184;-83
2023/02/25 01:25:20;;;;;;;;;;;23.30;78.70;;;;;;1787828;80;20204;-83
2023/02/25 01:27:50;;;;;;;;;;;23.30;78.70;;;;;;1821841;79;20207;-84
2023/02/25 01:30:20;;;;;;;;;;;23.30;78.30;;;;;;1816931;78;20448;-83
2023/02/25 01:32:50;;;;;;;;;;;23.40;77.70;;;;;;1821929;78;20183;-84
2023/02/25 01:35:20;;;;;;;;;;;23.30;77.40;;;;;;1823266;78;20235;-86
2023/02/25 01:37:50;;;;;;;;;;;23.40;76.80;;;;;;1823283;78;20257;-82
2023/02/25 01:40:22;;;;;;;;;;;23.40;76.80;;;;;;1816224;78;20221;-85
2023/02/25 01:42:52;;;;;;;;;;;23.50;76.60;;;;;;1828571;78;20221;-85
2023/02/25 01:45:23;;;;;;;;;;;23.50;76.00;;;;;;1823158;78;20239;-84
2023/02/25 01:48:03;;;;;;;;;;;23.50;76.20;;;;;;1822620;79;20209;-85
2023/02/25 01:50:37;;;;;;;;;;;23.50;76.30;;;;;;1810224;79;20182;-84
2023/02/25 01:53:08;;;;;;;;;;;23.50;76.20;;;;;;1821867;79;20203;-84
2023/02/25 01:55:39;;;;;;;;;;;23.50;75.80;;;;;;1822248;79;20609;-85
2023/02/25 01:58:10;;;;;;;;;;;23.60;75.80;;;;;;1824440;78;20221;-84
2023/02/25 02:00:45;;;;;;;;;;;23.60;75.70;;;;;;1823473;78;20367;-85
2023/02/25 02:03:22;;;;;;;;;;;23.70;75.50;;;;;;1835449;77;20187;-86
2023/02/25 02:06:01;;;;;;;;;;;23.70;75.50;;;;;;1824513;78;20543;-85
2023/02/25 02:08:32;;;;;;;;;;;23.70;75.20;;;;;;1821607;78;20188;-87
2023/02/25 02:11:03;;;;;;;;;;;23.80;75.20;;;;;;1793356;80;20180;-86
2023/02/25 02:13:34;;;;;;;;;;;23.80;74.90;;;;;;1826123;79;20571;-86
2023/02/25 02:16:14;;;;;;;;;;;23.80;74.70;;;;;;1782986;80;20188;-84
2023/02/25 02:18:47;;;;;;;;;;;23.80;74.40;;;;;;1829469;78;20137;-82
2023/02/25 02:21:36;;;;;;;;;;;23.80;74.40;;;;;;1824817;78;20203;-85
2023/02/25 02:24:10;;;;;;;;;;;23.90;74.10;;;;;;1749737;81;20291;-85
2023/02/25 02:26:48;;;;;;;;;;;23.90;73.90;;;;;;1752099;81;20522;-82
2023/02/25 02:29:25;;;;;;;;;;;24.00;73.70;;;;;;1793695;78;20314;-85
2023/02/25 02:32:13;;;;;;;;;;;24.00;73.60;;;;;;1823899;77;20119;-82
2023/02/25 02:34:47;;;;;;;;;;;24.10;73.30;;;;;;1799251;78;20133;-85
2023/02/25 02:37:31;;;;;;;;;;;24.10;72.50;;;;;;1798045;79;20454;-86
2023/02/25 02:40:09;;;;;;;;;;;24.10;72.60;;;;;;1799280;79;20209;-84
2023/02/25 02:42:55;;;;;;;;;;;24.20;72.50;;;;;;1777737;80;20213;-86
2023/02/25 02:45:42;;;;;;;;;;;24.30;72.00;;;;;;1780179;80;20579;-84
2023/02/25 02:48:17;;;;;;;;;;;24.30;71.80;;;;;;1780231;80;20280;-85
2023/02/25 02:50:48;;;;;;;;;;;24.40;71.70;;;;;;1788141;80;20259;-85
2023/02/25 02:53:19;;;;;;;;;;;24.40;71.70;;;;;;1821654;78;20199;-85
2023/02/25 02:55:55;;;;;;;;;;;24.40;71.40;;;;;;1784641;80;20221;-85
2023/02/25 02:58:29;;;;;;;;;;;24.60;70.90;;;;;;1829001;78;20547;-84
2023/02/25 03:01:00;;;;;;;;;;;24.60;70.90;;;;;;1820207;78;20187;-86
2023/02/25 03:03:37;;;;;;;;;;;24.60;70.50;;;;;;1828030;78;20215;-84
2023/02/25 03:06:11;;;;;;;;;;;24.70;70.50;;;;;;1821563;78;20249;-85
2023/02/25 03:08:43;;;;;;;;;;;24.80;70.30;;;;;;1769272;80;20162;-84
2023/02/25 03:11:13;;;;;;;;;;;24.80;70.00;;;;;;1793815;80;20192;-84
2023/02/25 03:13:43;;;;;;;;;;;24.90;69.70;;;;;;1814062;79;20464;-83
2023/02/25 03:16:14;;;;;;;;;;;25.00;69.50;;;;;;1813409;79;20180;-84
2023/02/25 03:18:45;;;;;;;;;;;25.10;69.60;;;;;;1820234;79;20164;-85
2023/02/25 03:21:16;;;;;;;;;;;25.20;69.30;;;;;;1807509;79;20138;-85
2023/02/25 03:23:47;;;;;;;;;;;25.30;69.10;;;;;;1816155;79;20203;-85
2023/02/25 03:26:18;;;;;;;;;;;25.40;69.30;;;;;;1819871;79;20136;-82
2023/02/25 03:28:52;;;;;;;;;;;25.50;68.10;;;;;;1818092;79;20272;-83
2023/02/25 03:31:28;;;;;;;;;;;25.60;66.70;;;;;;1819585;79;20121;-83
2023/02/25 03:33:59;;;;;;;;;;;25.70;66.50;;;;;;1798296;79;20195;-83
2023/02/25 03:36:36;;;;;;;;;;;25.70;66.30;;;;;;1768133;80;20166;-83
2023/02/25 03:39:26;;;;;;;;;;;25.80;66.00;;;;;;1766440;80;20411;-84
2023/02/25 03:42:33;;;;;;;;;;;25.90;66.40;;;;;;1770111;79;20130;-85
2023/02/25 03:44:51;;;;;;;;;;;26.00;64.70;;;;;;1778756;80;20245;-85
2023/02/25 03:47:25;;;;;;;;;;;26.10;64.90;;;;;;1832940;77;20220;-85
2023/02/25 03:49:59;;;;;;;;;;;26.20;65.20;;;;;;1807901;78;20215;-85
2023/02/25 03:52:31;;;;;;;;;;;26.30;65.00;;;;;;1805759;79;20194;-85
2023/02/25 03:55:01;;;;;;;;;;;26.40;65.20;;;;;;1831835;78;20497;-84
2023/02/25 03:57:38;;;;;;;;;;;26.50;64.70;;;;;;1829286;78;20132;-84
2023/02/25 04:00:16;;;;;;;;;;;26.80;62.10;;;;;;1822715;78;20183;-85
2023/02/25 04:02:45;;;;;;;;;;;26.80;63.00;;;;;;1837502;77;20215;-84
2023/02/25 04:05:16;;;;;;;;;;;26.80;62.40;;;;;;1840999;77;20686;-81
2023/02/25 04:07:46;;;;;;;;;;;26.90;63.60;;;;;;1830237;77;20394;-83
2023/02/25 04:10:16;;;;;;;;;;;27.00;63.00;;;;;;1827839;77;20298;-84
2023/02/25 04:12:46;;;;;;;;;;;27.20;63.20;;;;;;1837035;77;20551;-81
2023/02/25 04:15:16;;;;;;;;;;;27.30;60.80;;;;;;1830285;77;20473;-82
2023/02/25 04:17:45;;;;;;;;;;;27.40;61.00;;;;;;1835695;78;20525;-84
2023/02/25 04:20:16;;;;;;;;;;;27.50;60.80;;;;;;1840321;78;20187;-84
2023/02/25 04:22:45;;;;;;;;;;;27.60;61.00;;;;;;1836417;78;20520;-84
2023/02/25 04:25:19;;;;;;;;;;;27.70;60.40;;;;;;1844185;78;20119;-84
2023/02/25 04:27:49;;;;;;;;;;;27.80;60.60;;;;;;1844369;78;20159;-85
2023/02/25 04:30:19;;;;;;;;;;;27.90;60.10;;;;;;1840992;78;20207;-85
2023/02/25 04:32:51;;;;;;;;;;;27.90;60.30;;;;;;1836889;78;20219;-84
2023/02/25 04:35:21;;;;;;;;;;;28.00;60.90;;;;;;1837728;78;20189;-85
2023/02/25 04:37:50;;;;;;;;;;;28.10;61.40;;;;;;1837653;78;20171;-84
2023/02/25 04:40:21;;;;;;;;;;;28.10;59.40;;;;;;1809427;78;20180;-83
2023/02/25 04:42:52;;;;;;;;;;;28.20;59.10;;;;;;1807053;79;20137;-84
2023/02/25 04:45:26;;;;;;;;;;;28.20;60.90;;;;;;1809282;79;20179;-85
2023/02/25 04:47:56;;;;;;;;;;;28.30;58.40;;;;;;1827831;78;20183;-85
2023/02/25 04:50:29;;;;;;;;;;;28.40;58.70;;;;;;1818028;77;20121;-84
2023/02/25 04:53:03;;;;;;;;;;;28.40;58.50;;;;;;1816986;78;20173;-86
2023/02/25 04:55:34;;;;;;;;;;;28.50;57.40;;;;;;1816393;79;20168;-84
2023/02/25 04:58:04;;;;;;;;;;;28.60;57.30;;;;;;1853870;77;20173;-84
2023/02/25 05:00:34;;;;;;;;;;;28.60;57.00;;;;;;1828705;77;20245;-85
2023/02/25 05:03:04;;;;;;;;;;;28.70;58.20;;;;;;1794637;80;20620;-85
2023/02/25 05:05:34;;;;;;;;;;;28.80;58.70;;;;;;1818845;79;20219;-85
2023/02/25 05:08:05;;;;;;;;;;;28.90;56.90;;;;;;1809988;79;20137;-84
2023/02/25 05:10:35;;;;;;;;;;;28.90;57.60;;;;;;1802661;79;20487;-86
2023/02/25 05:13:05;;;;;;;;;;;29.00;55.90;;;;;;1818034;77;20203;-86
2023/02/25 05:15:34;;;;;;;;;;;29.10;56.20;;;;;;1807362;78;20170;-86
2023/02/25 05:18:04;;;;;;;;;;;29.20;56.00;;;;;;1819818;79;20205;-85
2023/02/25 05:20:34;;;;;;;;;;;29.20;54.90;;;;;;1817366;79;20192;-85
2023/02/25 05:23:04;;;;;;;;;;;29.30;54.50;;;;;;1811624;79;20215;-83
2023/02/25 05:25:33;;;;;;;;;;;29.40;55.50;;;;;;1814534;78;20251;-85
2023/02/25 05:28:03;;;;;;;;;;;29.30;54.30;;;;;;1788424;80;20186;-84
2023/02/25 05:30:35;;;;;;;;;;;29.40;53.90;;;;;;1788900;80;20593;-85
2023/02/25 05:33:04;;;;;;;;;;;29.40;53.90;;;;;;1815629;79;20241;-84
2023/02/25 05:35:34;;;;;;;;;;;29.40;54.40;;;;;;1817787;78;20391;-84
2023/02/25 05:38:04;;;;;;;;;;;29.50;54.40;;;;;;1819664;78;20161;-83
2023/02/25 05:40:35;;;;;;;;;;;29.50;54.90;;;;;;1832944;78;20190;-82
2023/02/25 05:43:04;;;;;;;;;;;29.60;53.30;;;;;;1814355;79;20152;-84
2023/02/25 05:45:34;;;;;;;;;;;29.60;54.50;;;;;;1802126;79;20176;-84
2023/02/25 05:48:04;;;;;;;;;;;29.60;53.00;;;;;;1800250;79;20200;-84
2023/02/25 05:50:40;;;;;;;;;;;29.70;53.70;;;;;;1806959;79;20192;-84
2023/02/25 05:53:05;;;;;;;;;;;29.70;53.20;;;;;;1801976;79;20188;-85
2023/02/25 05:55:34;;;;;;;;;;;29.80;55.50;;;;;;1792769;79;20220;-85
2023/02/25 05:58:04;;;;;;;;;;;29.80;52.20;;;;;;1808868;79;20180;-84
2023/02/25 06:00:34;;;;;;;;;;;29.80;52.00;;;;;;1802664;79;20176;-83
2023/02/25 06:03:04;;;;;;;;;;;29.80;51.70;;;;;;1811133;79;20236;-82
2023/02/25 06:05:33;;;;;;;;;;;29.70;52.50;;;;;;1816096;79;20308;-82
2023/02/25 06:08:03;;;;;;;;;;;29.70;54.30;;;;;;1814820;79;20224;-82
2023/02/25 06:10:37;;;;;;;;;;;29.80;52.40;;;;;;1798948;79;20212;-82
2023/02/25 06:13:06;;;;;;;;;;;29.80;53.60;;;;;;1798797;79;20180;-81
2023/02/25 06:15:42;;;;;;;;;;;29.80;53.20;;;;;;1773996;80;20221;-81
2023/02/25 06:18:12;;;;;;;;;;;29.70;54.00;;;;;;1769539;79;20213;-83
2023/02/25 06:20:41;;;;;;;;;;;29.80;54.90;;;;;;1739592;81;20229;-81
2023/02/25 06:23:11;;;;;;;;;;;29.80;53.90;;;;;;1777051;79;20228;-83
2023/02/25 06:25:41;;;;;;;;;;;29.80;51.90;;;;;;1738219;81;20305;-82
2023/02/25 06:28:10;;;;;;;;;;;29.80;52.30;;;;;;1781930;79;20393;-82
2023/02/25 06:30:41;;;;;;;;;;;29.80;51.80;;;;;;1736704;82;20192;-81
2023/02/25 06:33:11;;;;;;;;;;;29.80;52.50;;;;;;1765788;80;20477;-82
2023/02/25 06:35:41;;;;;;;;;;;29.80;52.70;;;;;;1762735;81;20169;-82
2023/02/25 06:38:10;;;;;;;;;;;29.80;52.30;;;;;;1763706;80;20219;-81
2023/02/25 06:40:40;;;;;;;;;;;29.80;52.50;;;;;;1729143;82;20394;-82
2023/02/25 06:43:10;;;;;;;;;;;29.80;53.40;;;;;;1736530;81;20227;-81
2023/02/25 06:45:39;;;;;;;;;;;29.90;52.20;;;;;;1732794;82;20239;-82
2023/02/25 06:48:09;;;;;;;;;;;30.00;52.50;;;;;;1746775;78;20196;-83
2023/02/25 06:50:39;;;;;;;;;;;30.00;53.60;;;;;;1789270;79;20170;-82
2023/02/25 06:53:09;;;;;;;;;;;30.10;53.60;;;;;;1816061;78;20201;-82
2023/02/25 06:55:39;;;;;;;;;;;30.10;51.50;;;;;;1816677;77;20589;-81
2023/02/25 06:58:09;;;;;;;;;;;30.10;51.00;;;;;;1819490;79;20196;-84
2023/02/25 07:00:41;;;;;;;;;;;30.20;53.00;;;;;;1798646;78;20331;-82
2023/02/25 07:03:12;;;;;;;;;;;30.20;51.70;;;;;;1816412;78;20548;-82
2023/02/25 07:05:42;;;;;;;;;;;30.10;51.70;;;;;;1777307;79;20184;-81
2023/02/25 07:08:12;;;;;;;;;;;30.10;52.10;;;;;;1818178;77;20183;-82
2023/02/25 07:10:42;;;;;;;;;;;30.10;52.40;;;;;;1819714;79;20247;-82
2023/02/25 07:13:12;;;;;;;;;;;30.10;51.70;;;;;;1817468;78;20221;-83
2023/02/25 07:15:57;;;;;;;;;;;30.10;50.90;;;;;;1821456;79;20120;-82
2023/02/25 07:18:36;;;;;;;;;;;30.10;51.90;;;;;;1823548;79;20129;-81
2023/02/25 07:21:06;;;;;;;;;;;30.10;51.30;;;;;;1770808;79;20710;-85
2023/02/25 07:23:36;;;;;;;;;;;30.20;51.80;;;;;;1782429;79;20393;-82
2023/02/25 07:26:07;;;;;;;;;;;30.10;51.90;;;;;;1814970;77;20292;-84
2023/02/25 07:28:37;;;;;;;;;;;30.10;51.70;;;;;;1810034;78;20140;-82
2023/02/25 07:31:10;;;;;;;;;;;30.10;52.90;;;;;;1814209;78;20223;-84
2023/02/25 07:33:40;;;;;;;;;;;30.10;52.00;;;;;;1780618;79;20165;-82
2023/02/25 07:36:11;;;;;;;;;;;30.10;52.50;;;;;;1795551;79;20196;-82
2023/02/25 07:38:40;;;;;;;;;;;30.10;50.50;;;;;;1821271;78;20240;-83
2023/02/25 07:41:11;;;;;;;;;;;30.00;51.40;;;;;;1813500;77;20186;-83
2023/02/25 07:43:41;;;;;;;;;;;30.00;52.00;;;;;;1818541;78;20233;-83
2023/02/25 07:46:12;;;;;;;;;;;30.00;51.10;;;;;;1813483;78;20364;-82
2023/02/25 07:48:42;;;;;;;;;;;30.00;52.10;;;;;;1792487;78;20559;-80
2023/02/25 07:51:14;;;;;;;;;;;30.00;52.30;;;;;;1808827;78;20225;-82
2023/02/25 07:53:44;;;;;;;;;;;30.00;51.40;;;;;;1824344;77;20207;-83
2023/02/25 07:56:15;;;;;;;;;;;30.00;51.80;;;;;;1842111;77;20218;-82
2023/02/25 07:58:44;;;;;;;;;;;30.00;51.60;;;;;;1823083;77;20257;-83
2023/02/25 08:01:30;;;;;;;;;;;30.00;51.40;;;;;;1826150;77;20466;-82
2023/02/25 08:04:02;;;;;;;;;;;30.00;52.70;;;;;;1814364;78;20239;-82
2023/02/25 08:06:36;;;;;;;;;;;29.90;51.10;;;;;;1817034;78;20195;-81
2023/02/25 08:09:14;;;;;;;;;;;29.90;52.10;;;;;;1816536;77;20187;-79
2023/02/25 08:11:41;;;;;;;;;;;29.80;51.80;;;;;;1822012;77;20201;-81
2023/02/25 08:14:11;;;;;;;;;;;29.80;51.90;;;;;;1818391;78;20226;-82
2023/02/25 08:16:40;;;;;;;;;;;29.80;53.20;;;;;;1814837;78;20214;-82
2023/02/25 08:19:10;;;;;;;;;;;29.90;53.10;;;;;;1818971;78;20198;-80
2023/02/25 08:21:40;;;;;;;;;;;29.90;51.30;;;;;;1771536;80;20206;-82
2023/02/25 08:24:10;;;;;;;;;;;29.80;51.80;;;;;;1760249;80;20236;-81
2023/02/25 08:26:42;;;;;;;;;;;29.90;52.10;;;;;;1795485;79;20207;-81
2023/02/25 08:29:12;;;;;;;;;;;29.80;51.50;;;;;;1809660;79;20137;-82
2023/02/25 08:31:52;;;;;;;;;;;29.80;51.60;;;;;;1805373;79;20467;-83
2023/02/25 08:34:19;;;;;;;;;;;29.80;51.50;;;;;;1755383;80;20135;-81
2023/02/25 08:36:52;;;;;;;;;;;29.80;51.50;;;;;;1785903;80;20187;-81
2023/02/25 08:39:22;;;;;;;;;;;29.80;51.80;;;;;;1821002;79;20181;-82
2023/02/25 08:41:52;;;;;;;;;;;29.70;51.30;;;;;;1783487;79;20189;-82
2023/02/25 08:44:23;;;;;;;;;;;29.70;51.00;;;;;;1814036;79;20214;-81
2023/02/25 08:46:58;;;;;;;;;;;29.70;50.90;;;;;;1813802;79;20293;-81
2023/02/25 08:49:24;;;;;;;;;;;29.70;51.00;;;;;;1813445;78;20226;-81
2023/02/25 08:51:54;;;;;;;;;;;29.70;51.50;;;;;;1803092;79;20191;-81
2023/02/25 08:54:24;;;;;;;;;;;29.60;51.70;;;;;;1802976;79;20196;-79
2023/02/25 08:56:54;;;;;;;;;;;29.70;51.50;;;;;;1803392;79;20581;-80
2023/02/25 08:59:24;;;;;;;;;;;29.70;51.50;;;;;;1812263;79;20236;-82
2023/02/25 09:01:54;;;;;;;;;;;29.60;51.90;;;;;;1821282;78;20160;-80
2023/02/25 09:04:24;;;;;;;;;;;29.70;52.20;;;;;;1820028;79;20190;-81
2023/02/25 09:06:54;;;;;;;;;;;29.70;52.10;;;;;;1820324;79;20182;-81
2023/02/25 09:09:24;;;;;;;;;;;29.70;52.60;;;;;;1819582;79;20212;-81
2023/02/25 09:11:54;;;;;;;;;;;29.70;52.20;;;;;;1794558;78;20193;-80
2023/02/25 09:14:24;;;;;;;;;;;29.70;51.70;;;;;;1783968;80;20221;-81
2023/02/25 09:16:53;;;;;;;;;;;29.70;52.10;;;;;;1783802;80;20213;-81
2023/02/25 09:19:23;;;;;;;;;;;29.70;51.40;;;;;;1800975;79;20207;-81
2023/02/25 09:21:53;;;;;;;;;;;29.60;51.10;;;;;;1798054;79;20220;-82
2023/02/25 09:24:23;;;;;;;;;;;29.60;51.20;;;;;;1790687;80;20178;-81
2023/02/25 09:26:53;;;;;;;;;;;29.50;50.70;;;;;;1817387;79;20533;-82
2023/02/25 09:29:33;;;;;;;;;;;29.50;51.40;;;;;;1822279;77;20221;-81
2023/02/25 09:31:58;;;;;;;;;;;29.50;52.00;;;;;;1811971;79;20231;-82
2023/02/25 09:34:29;;;;;;;;;;;29.50;52.00;;;;;;1799404;79;20215;-80
2023/02/25 09:36:58;;;;;;;;;;;29.40;51.50;;;;;;1777643;80;20228;-81
2023/02/25 09:39:28;;;;;;;;;;;29.40;51.80;;;;;;1815836;79;20186;-84
2023/02/25 09:41:59;;;;;;;;;;;29.40;51.60;;;;;;1780281;80;20232;-80
2023/02/25 09:44:33;;;;;;;;;;;29.40;52.30;;;;;;1816589;79;20121;-81
2023/02/25 09:47:16;;;;;;;;;;;29.30;52.20;;;;;;1794225;79;20170;-85
2023/02/25 09:50:00;;;;;;;;;;;29.30;51.80;;;;;;1808190;78;20205;-84
2023/02/25 09:52:37;;;;;;;;;;;29.30;52.20;;;;;;1814051;78;20191;-84
2023/02/25 09:55:08;;;;;;;;;;;29.30;52.00;;;;;;1817548;77;20216;-82
2023/02/25 09:57:44;;;;;;;;;;;29.30;52.40;;;;;;1829358;77;20290;-81
2023/02/25 10:00:17;;;;;;;;;;;29.20;52.50;;;;;;1788326;78;20563;-82
2023/02/25 10:02:57;;;;;;;;;;;29.20;52.60;;;;;;1802131;78;20199;-81
2023/02/25 10:05:38;;;;;;;;;;;29.10;52.80;;;;;;1830095;78;20175;-81
2023/02/25 10:08:24;;;;;;;;;;;29.10;53.00;;;;;;1779014;81;20151;-82
2023/02/25 10:11:02;;;;;;;;;;;29.10;52.80;;;;;;1783435;79;20257;-83
2023/02/25 10:13:33;;;;;;;;;;;29.10;53.10;;;;;;1802765;78;20231;-84
2023/02/25 10:16:08;;;;;;;;;;;29.10;52.70;;;;;;1807990;78;20211;-83
2023/02/25 10:18:39;;;;;;;;;;;29.00;52.80;;;;;;1821036;78;20204;-85
2023/02/25 10:21:24;;;;;;;;;;;29.00;53.20;;;;;;1858042;76;20617;-84
2023/02/25 10:24:12;;;;;;;;;;;28.90;52.90;;;;;;1867076;76;20175;-84
2023/02/25 10:26:43;;;;;;;;;;;28.90;53.10;;;;;;1862251;76;20352;-81
2023/02/25 10:29:17;;;;;;;;;;;28.80;53.10;;;;;;1861262;76;20765;-86
2023/02/25 10:31:47;;;;;;;;;;;28.80;53.60;;;;;;1867749;76;20589;-83
2023/02/25 10:34:27;;;;;;;;;;;28.80;53.40;;;;;;1886290;76;20385;-83
2023/02/25 10:36:58;;;;;;;;;;;28.80;53.70;;;;;;1886383;76;20577;-87
2023/02/25 10:39:34;;;;;;;;;;;28.80;53.70;;;;;;1871067;76;20457;-84
2023/02/25 10:42:04;;;;;;;;;;;28.70;53.50;;;;;;1872228;76;20214;-84
2023/02/25 10:44:34;;;;;;;;;;;28.70;53.40;;;;;;1881035;76;20561;-85
2023/02/25 10:47:05;;;;;;;;;;;28.70;53.50;;;;;;1861076;76;20444;-85
2023/02/25 10:49:37;;;;;;;;;;;28.60;53.90;;;;;;1873868;76;20177;-85
2023/02/25 10:52:19;;;;;;;;;;;28.70;54.00;;;;;;1863670;76;20202;-85
2023/02/25 10:54:53;;;;;;;;;;;28.60;54.30;;;;;;1868089;76;20184;-86
2023/02/25 10:57:27;;;;;;;;;;;28.60;54.40;;;;;;1848657;76;20211;-84
2023/02/25 11:00:01;;;;;;;;;;;28.60;54.50;;;;;;1858593;76;21059;-83
2023/02/25 11:02:32;;;;;;;;;;;28.50;54.40;;;;;;1849042;76;20244;-85
2023/02/25 11:05:02;;;;;;;;;;;28.50;54.80;;;;;;1863118;76;20175;-84
2023/02/25 11:07:33;;;;;;;;;;;28.50;54.80;;;;;;1846596;76;20135;-83
2023/02/25 11:10:04;;;;;;;;;;;28.50;55.00;;;;;;1861268;76;20184;-83
2023/02/25 11:12:42;;;;;;;;;;;28.50;55.00;;;;;;1808138;78;20288;-84
2023/02/25 11:15:19;;;;;;;;;;;28.40;55.10;;;;;;1803050;78;20132;-85
2023/02/25 11:17:50;;;;;;;;;;;28.40;55.50;;;;;;1806501;79;20184;-85
2023/02/25 11:20:24;;;;;;;;;;;28.40;55.40;;;;;;1777798;80;20218;-85
2023/02/25 11:22:55;;;;;;;;;;;28.40;55.70;;;;;;1819670;78;20185;-84
2023/02/25 11:25:34;;;;;;;;;;;28.30;55.60;;;;;;1798562;79;20195;-84
2023/02/25 11:28:06;;;;;;;;;;;28.30;55.60;;;;;;1766432;80;20302;-84
2023/02/25 11:30:38;;;;;;;;;;;28.30;55.80;;;;;;1792747;78;20303;-84
2023/02/25 11:33:10;;;;;;;;;;;28.30;55.80;;;;;;1814888;78;20180;-84
2023/02/25 11:35:40;;;;;;;;;;;28.20;55.90;;;;;;1835406;77;20226;-83
2023/02/25 11:38:41;;;;;;;;;;;28.20;56.10;;;;;;1833039;77;20197;-84
2023/02/25 11:41:02;;;;;;;;;;;28.10;55.90;;;;;;1808939;77;20178;-85
2023/02/25 11:43:36;;;;;;;;;;;28.10;56.00;;;;;;1829467;77;20154;-83
2023/02/25 11:46:12;;;;;;;;;;;28.10;56.30;;;;;;1797640;79;20222;-85
2023/02/25 11:48:47;;;;;;;;;;;28.00;56.30;;;;;;1806527;77;20318;-83
2023/02/25 11:51:24;;;;;;;;;;;28.00;56.30;;;;;;1826667;78;20247;-84
2023/02/25 11:53:58;;;;;;;;;;;27.90;56.50;;;;;;1793046;77;20625;-84
2023/02/25 11:56:32;;;;;;;;;;;27.90;56.50;;;;;;1782741;80;20314;-82
2023/02/25 11:59:19;;;;;;;;;;;27.90;56.60;;;;;;1815797;78;20408;-83
2023/02/25 12:01:58;;;;;;;;;;;27.80;56.60;;;;;;1801343;78;20240;-82
2023/02/25 12:04:30;;;;;;;;;;;27.80;57.00;;;;;;1764439;80;20260;-83
2023/02/25 12:07:10;;;;;;;;;;;27.70;56.90;;;;;;1795820;79;20463;-83
2023/02/25 12:09:57;;;;;;;;;;;27.70;57.00;;;;;;1772724;80;20225;-83
2023/02/25 12:12:40;;;;;;;;;;;27.70;57.00;;;;;;1786649;80;20196;-83
2023/02/25 12:15:26;;;;;;;;;;;27.60;57.00;;;;;;1818856;78;20519;-82
2023/02/25 12:18:07;;;;;;;;;;;27.60;57.00;;;;;;1820779;78;20215;-81
2023/02/25 12:20:53;;;;;;;;;;;27.60;57.00;;;;;;1807844;78;20138;-81
2023/02/25 12:23:28;;;;;;;;;;;27.50;57.20;;;;;;1801954;78;20126;-82
2023/02/25 12:26:05;;;;;;;;;;;27.40;56.90;;;;;;1777771;79;20220;-83
2023/02/25 12:28:52;;;;;;;;;;;27.40;57.20;;;;;;1785712;80;20137;-81
2023/02/25 12:31:41;;;;;;;;;;;27.30;57.00;;;;;;1785231;79;20298;-82
2023/02/25 12:34:15;;;;;;;;;;;27.30;57.20;;;;;;1818939;78;20194;-84
2023/02/25 12:36:52;;;;;;;;;;;27.30;57.20;;;;;;1820633;78;20729;-83
2023/02/25 12:39:37;;;;;;;;;;;27.20;57.20;;;;;;1792237;80;20414;-82
2023/02/25 12:42:07;;;;;;;;;;;27.20;57.40;;;;;;1807911;78;20215;-82
2023/02/25 12:44:46;;;;;;;;;;;27.10;57.40;;;;;;1817009;77;20229;-84
2023/02/25 12:47:14;;;;;;;;;;;27.10;57.40;;;;;;1782415;80;20210;-85
2023/02/25 12:49:48;;;;;;;;;;;27.10;57.50;;;;;;1830442;78;20165;-82
2023/02/25 12:52:34;;;;;;;;;;;27.10;57.50;;;;;;1794443;78;20196;-83
2023/02/25 12:55:06;;;;;;;;;;;27.00;57.50;;;;;;1760053;81;20321;-85
2023/02/25 12:57:40;;;;;;;;;;;27.00;57.60;;;;;;1767029;80;20162;-85
2023/02/25 13:00:28;;;;;;;;;;;26.90;57.50;;;;;;1769202;81;20131;-83
2023/02/25 13:03:08;;;;;;;;;;;26.90;57.60;;;;;;1744803;80;20285;-84
2023/02/25 13:05:56;;;;;;;;;;;26.80;57.50;;;;;;1762419;79;20174;-84
2023/02/25 13:08:27;;;;;;;;;;;26.80;57.50;;;;;;1781009;80;20172;-85
2023/02/25 13:11:17;;;;;;;;;;;26.80;57.50;;;;;;1777110;80;20187;-83
2023/02/25 13:13:59;;;;;;;;;;;26.80;57.50;;;;;;1773204;80;20180;-84
2023/02/25 13:16:36;;;;;;;;;;;26.80;57.50;;;;;;1766075;80;20478;-84
2023/02/25 13:19:28;;;;;;;;;;;26.70;57.50;;;;;;1787497;80;20188;-85
2023/02/25 13:22:03;;;;;;;;;;;26.60;57.30;;;;;;1770239;78;20206;-84
2023/02/25 13:24:50;;;;;;;;;;;26.60;57.40;;;;;;1778524;80;20274;-83
2023/02/25 13:27:40;;;;;;;;;;;26.50;57.50;;;;;;1776616;80;20236;-84
2023/02/25 13:30:12;;;;;;;;;;;26.50;57.70;;;;;;1768180;81;20397;-83
2023/02/25 13:32:43;;;;;;;;;;;26.50;60.90;;;;;;1775229;80;20153;-82
2023/02/25 13:35:33;;;;;;;;;;;26.40;57.70;;;;;;1769481;79;20179;-85
2023/02/25 13:37:56;;;;;;;;;;;26.30;57.70;;;;;;1808208;78;20172;-86
2023/02/25 13:40:39;;;;;;;;;;;26.30;57.90;;;;;;1779719;80;20196;-84
2023/02/25 13:43:27;;;;;;;;;;;26.30;58.00;;;;;;1770101;79;20674;-84
2023/02/25 13:46:01;;;;;;;;;;;26.20;58.10;;;;;;1758632;80;20206;-84
2023/02/25 13:48:40;;;;;;;;;;;26.20;58.20;;;;;;1768389;81;20123;-84
2023/02/25 13:51:15;;;;;;;;;;;26.10;58.30;;;;;;1757255;78;20248;-84
2023/02/25 13:54:06;;;;;;;;;;;26.10;58.50;;;;;;1771726;80;20166;-83
2023/02/25 13:56:54;;;;;;;;;;;26.10;58.80;;;;;;1765008;79;20210;-85
2023/02/25 13:59:41;;;;;;;;;;;26.00;58.70;;;;;;1774277;80;20176;-85
2023/02/25 14:02:32;;;;;;;;;;;25.90;58.60;;;;;;1766322;79;20199;-84
2023/02/25 14:05:06;;;;;;;;;;;25.90;58.60;;;;;;1789802;80;20204;-84
2023/02/25 14:07:49;;;;;;;;;;;25.90;58.70;;;;;;1771541;79;20186;-84
2023/02/25 14:10:26;;;;;;;;;;;25.90;58.80;;;;;;1806727;79;20528;-84
2023/02/25 14:13:12;;;;;;;;;;;25.80;59.00;;;;;;1811667;79;20230;-85
2023/02/25 14:15:43;;;;;;;;;;;25.80;59.30;;;;;;1767401;80;20190;-83
2023/02/25 14:18:29;;;;;;;;;;;25.80;58.50;;;;;;1810255;78;20137;-83
2023/02/25 14:21:06;;;;;;;;;;;25.70;58.90;;;;;;1780733;79;20206;-84
2023/02/25 14:23:40;;;;;;;;;;;25.70;59.00;;;;;;1794539;80;20204;-84
2023/02/25 14:26:19;;;;;;;;;;;25.70;59.20;;;;;;1799247;79;20133;-83
2023/02/25 14:28:52;;;;;;;;;;;25.60;59.30;;;;;;1807975;78;20237;-85
2023/02/25 14:31:33;;;;;;;;;;;25.50;59.40;;;;;;1805184;77;20588;-83
2023/02/25 14:34:16;;;;;;;;;;;25.50;59.40;;;;;;1809614;79;20188;-83
2023/02/25 14:36:51;;;;;;;;;;;25.50;59.40;;;;;;1795143;79;20183;-84
2023/02/25 14:39:28;;;;;;;;;;;25.50;59.80;;;;;;1786004;80;20204;-84
2023/02/25 14:42:16;;;;;;;;;;;25.40;59.70;;;;;;1771019;78;20512;-83
2023/02/25 14:45:04;;;;;;;;;;;25.30;59.70;;;;;;1799475;78;20547;-85
2023/02/25 14:47:48;;;;;;;;;;;25.30;59.70;;;;;;1809821;78;20125;-84
2023/02/25 14:50:31;;;;;;;;;;;25.30;60.00;;;;;;1785023;79;20200;-86
2023/02/25 14:53:20;;;;;;;;;;;25.20;60.00;;;;;;1832110;78;20203;-84
2023/02/25 14:56:08;;;;;;;;;;;25.20;60.20;;;;;;1740200;82;20278;-84